NVA weather

Benito Salas Airport
Neiva, Huila Department, Colombia

Public forecast

Using degrees Celsius for public forecast. Weather courtesy of forecast.io.

Current aviation weather report (METAR) for Benito Salas Airport

Retrieved 2019/10/14 20:00 UTC (19 minutes ago):

SKNV 142000Z 18004KT 120V230 9999 VCSH FEW045 BKN120 33/15 A2980 RMK VCSH/E

Closest aviation forecast (TAF) to Benito Salas Airport

Closest forecast is Alfonso Bonilla Aragon International Airport, 74.3 nm (137.6 km) WNW. Retrieved 2019/10/14 18:54 UTC (1 hour ago):

TAF SKCL 141630Z 1418/1518 29006KT 9999 SCT020TCU SCT130 TEMPO 1419/1422 8000 VCSH BECMG 1423/1501 SCT015 BKN100 PROB40 TEMPO 1503/1508 7000 DZRA SCT015TCU TEMPO 1511/1514 7000 VCFG BKN030 TX31/1419Z TN19/1511Z